Time;durP1;ratioP1;P1;durP2;ratioP2;P2;SDS_P1;SDS_P2;PMS_P1;PMS_P2;Temp;Humidity;BMP_temperature;BMP_pressure;BME280_temperature;BME280_humidity;BME280_pressure;Samples;Min_cycle;Max_cycle;Signal;HPM_P1;HPM_P2
2024/01/21 00:01:54;;;;;;;21.25;11.43;;;;;;;-0.21;100.00;102350.28;5098729;27;20632;-73
2024/01/21 00:04:20;;;;;;;23.67;11.05;;;;;;;-0.20;100.00;102346.78;5097573;27;20500;-74
2024/01/21 00:06:45;;;;;;;20.27;11.35;;;;;;;-0.14;100.00;102339.84;5095095;27;20043;-73
2024/01/21 00:09:11;;;;;;;21.60;12.15;;;;;;;-0.21;100.00;102337.16;5057735;28;20844;-73
2024/01/21 00:11:36;;;;;;;21.70;10.73;;;;;;;-0.22;100.00;102327.56;5096733;27;20032;-73
2024/01/21 00:14:02;;;;;;;23.65;11.52;;;;;;;-0.16;100.00;102322.34;5085716;27;20040;-73
2024/01/21 00:16:27;;;;;;;23.13;10.57;;;;;;;-0.16;100.00;102314.47;5090938;27;20032;-73
2024/01/21 00:18:53;;;;;;;19.15;9.82;;;;;;;-0.23;100.00;102310.09;5091667;27;20085;-73
2024/01/21 00:21:18;;;;;;;21.80;11.68;;;;;;;-0.21;100.00;102303.97;5097071;27;20256;-73
2024/01/21 00:23:46;;;;;;;23.40;10.50;;;;;;;-0.27;100.00;102302.19;5096123;27;20079;-73
2024/01/21 00:26:11;;;;;;;21.33;10.95;;;;;;;-0.33;100.00;102296.06;5094613;27;20043;-74
2024/01/21 00:28:37;;;;;;;18.98;10.35;;;;;;;-0.28;100.00;102286.47;5097901;27;20027;-73
2024/01/21 00:31:05;;;;;;;20.15;11.02;;;;;;;-0.31;100.00;102282.06;5087578;27;20047;-73
2024/01/21 00:33:31;;;;;;;19.80;10.70;;;;;;;-0.30;100.00;102276.00;5091807;27;20039;-73
2024/01/21 00:35:57;;;;;;;22.00;10.73;;;;;;;-0.36;100.00;102281.16;5075312;27;20036;-73
2024/01/21 00:38:23;;;;;;;18.73;10.10;;;;;;;-0.33;100.00;102285.56;5090022;27;20212;-73
2024/01/21 00:40:49;;;;;;;21.92;11.45;;;;;;;-0.33;100.00;102275.09;5088296;27;20033;-74
2024/01/21 00:43:14;;;;;;;20.05;10.20;;;;;;;-0.43;100.00;102281.16;5088458;27;20051;-73
2024/01/21 00:45:40;;;;;;;20.20;9.27;;;;;;;-0.32;100.00;102279.47;5078022;27;20035;-73
2024/01/21 00:48:06;;;;;;;20.77;10.77;;;;;;;-0.34;100.00;102279.47;5095407;27;20323;-73
2024/01/21 00:50:32;;;;;;;17.75;9.35;;;;;;;-0.39;100.00;102282.94;5073004;28;20044;-73
2024/01/21 00:52:57;;;;;;;19.77;10.07;;;;;;;-0.40;100.00;102276.81;5085523;27;20029;-73
2024/01/21 00:55:23;;;;;;;19.95;10.80;;;;;;;-0.39;100.00;102278.56;5095683;27;20036;-73
2024/01/21 00:57:48;;;;;;;18.17;9.32;;;;;;;-0.44;100.00;102269.81;5079049;27;20139;-73
2024/01/21 01:00:14;;;;;;;16.50;10.13;;;;;;;-0.45;100.00;102275.91;5080863;27;20036;-73
2024/01/21 01:02:40;;;;;;;17.77;10.18;;;;;;;-0.42;100.00;102268.06;5097345;27;20050;-73
2024/01/21 01:05:06;;;;;;;21.98;10.00;;;;;;;-0.47;100.00;102264.53;5092684;27;20062;-73
2024/01/21 01:07:31;;;;;;;20.60;9.90;;;;;;;-0.44;100.00;102264.56;5096075;27;20032;-72
2024/01/21 01:09:57;;;;;;;17.30;9.60;;;;;;;-0.46;100.00;102258.41;5075442;28;20039;-73
2024/01/21 01:12:22;;;;;;;20.05;10.98;;;;;;;-0.55;100.00;102246.16;5078217;27;20028;-73
2024/01/21 01:14:48;;;;;;;17.88;9.68;;;;;;;-0.50;100.00;102253.16;5096879;27;20040;-74
2024/01/21 01:17:13;;;;;;;18.00;9.35;;;;;;;-0.50;100.00;102253.16;5091930;27;20065;-73
2024/01/21 01:19:39;;;;;;;16.65;8.85;;;;;;;-0.55;100.00;102253.16;5092577;27;20823;-73
2024/01/21 01:22:04;;;;;;;18.55;10.13;;;;;;;-0.60;100.00;102253.13;5097123;27;20539;-73
2024/01/21 01:24:30;;;;;;;18.17;10.25;;;;;;;-0.66;100.00;102245.22;5089096;27;20102;-73
2024/01/21 01:26:55;;;;;;;21.63;9.60;;;;;;;-0.64;100.00;102247.88;5069094;27;20035;-73
2024/01/21 01:29:21;;;;;;;16.30;9.65;;;;;;;-0.70;100.00;102253.03;5083914;27;20037;-72
2024/01/21 01:31:46;;;;;;;17.33;10.05;;;;;;;-0.77;100.00;102260.00;5090945;27;20058;-73
2024/01/21 01:34:12;;;;;;;20.77;9.45;;;;;;;-0.68;100.00;102251.31;5074833;27;20632;-73
2024/01/21 01:36:39;;;;;;;19.77;10.02;;;;;;;-0.73;100.00;102253.03;5093982;27;20031;-74
2024/01/21 01:39:05;;;;;;;16.20;8.48;;;;;;;-0.78;100.00;102229.44;5100421;27;20040;-74
2024/01/21 01:41:30;;;;;;;19.50;10.25;;;;;;;-0.71;100.00;102230.34;5096868;27;21089;-74
2024/01/21 01:43:56;;;;;;;15.95;9.15;;;;;;;-0.66;100.00;102223.38;5082749;27;20028;-73
2024/01/21 01:46:22;;;;;;;17.33;8.80;;;;;;;-0.75;100.00;102219.00;5096110;27;20062;-73
2024/01/21 01:48:49;;;;;;;17.75;9.70;;;;;;;-0.75;100.00;102223.34;5091494;27;20034;-73
2024/01/21 01:51:15;;;;;;;15.25;8.85;;;;;;;-0.70;100.00;102213.75;5073666;27;20027;-73
2024/01/21 01:53:40;;;;;;;18.55;8.85;;;;;;;-0.70;100.00;102200.66;5095460;27;20024;-74
2024/01/21 01:56:08;;;;;;;14.52;8.35;;;;;;;-0.70;100.00;102209.44;5098550;27;21055;-73
2024/01/21 01:58:34;;;;;;;14.23;8.43;;;;;;;-0.71;100.00;102207.66;5096034;27;20036;-73
2024/01/21 02:01:01;;;;;;;15.07;7.93;;;;;;;-0.74;100.00;102191.06;5091221;27;20123;-74
2024/01/21 02:03:27;;;;;;;16.23;8.40;;;;;;;-0.75;100.00;102191.91;5097550;27;20040;-73
2024/01/21 02:05:53;;;;;;;14.32;8.00;;;;;;;-0.78;100.00;102187.56;5091901;27;20083;-73
2024/01/21 02:08:19;;;;;;;16.38;8.38;;;;;;;-0.70;100.00;102179.72;5086574;27;20038;-73
2024/01/21 02:10:45;;;;;;;17.40;8.65;;;;;;;-0.71;100.00;102165.75;5098680;27;20043;-73
2024/01/21 02:13:11;;;;;;;18.15;8.43;;;;;;;-0.79;100.00;102178.81;5097207;27;20109;-73
2024/01/21 02:15:36;;;;;;;12.50;6.88;;;;;;;-0.72;100.00;102174.47;5094872;27;20024;-74
2024/01/21 02:18:02;;;;;;;14.43;8.30;;;;;;;-0.80;100.00;102166.59;5093755;27;20048;-73
2024/01/21 02:20:27;;;;;;;17.35;8.13;;;;;;;-0.79;100.00;102162.22;5070932;27;20044;-73
2024/01/21 02:22:59;;;;;;;13.85;8.23;;;;;;;-0.74;100.00;102149.16;5059677;27;20028;-73
2024/01/21 02:25:25;;;;;;;16.47;8.07;;;;;;;-0.75;100.00;102147.38;5078963;27;20498;-73
2024/01/21 02:27:50;;;;;;;12.90;7.63;;;;;;;-0.73;100.00;102140.44;5094187;27;20496;-73
2024/01/21 02:30:16;;;;;;;13.85;7.47;;;;;;;-0.85;100.00;102138.66;5093108;27;20047;-72
2024/01/21 02:32:41;;;;;;;11.43;6.78;;;;;;;-0.82;100.00;102121.19;5090645;27;20811;-73
2024/01/21 02:35:07;;;;;;;12.68;6.95;;;;;;;-0.85;100.00;102109.84;5091675;27;20024;-73
2024/01/21 02:37:32;;;;;;;15.18;7.88;;;;;;;-0.90;100.00;102096.75;5077339;27;20047;-73
2024/01/21 02:39:58;;;;;;;13.27;7.22;;;;;;;-0.80;100.00;102101.13;5090704;27;20032;-73
2024/01/21 02:42:25;;;;;;;12.38;6.85;;;;;;;-0.83;100.00;102097.63;5097351;27;20054;-73
2024/01/21 02:44:51;;;;;;;16.00;8.38;;;;;;;-0.87;100.00;102098.47;5070821;28;20028;-73
2024/01/21 02:47:17;;;;;;;14.27;6.95;;;;;;;-0.80;100.00;102089.78;5090712;27;20078;-73
2024/01/21 02:49:43;;;;;;;13.07;6.80;;;;;;;-0.83;100.00;102090.63;5097225;27;20090;-73
2024/01/21 02:52:08;;;;;;;12.95;6.85;;;;;;;-0.95;100.00;102074.03;5092989;27;20794;-73
2024/01/21 02:54:34;;;;;;;13.05;6.88;;;;;;;-0.94;100.00;102081.00;5099066;27;20036;-73
2024/01/21 02:56:59;;;;;;;11.25;6.38;;;;;;;-0.99;100.00;102078.38;5097518;27;20055;-73
2024/01/21 02:59:25;;;;;;;14.65;7.10;;;;;;;-0.97;100.00;102078.38;5080558;27;20046;-73
2024/01/21 03:01:50;;;;;;;11.10;6.38;;;;;;;-0.94;100.00;102063.56;5075041;27;20880;-74
2024/01/21 03:04:15;;;;;;;11.48;6.90;;;;;;;-0.89;100.00;102067.06;5082341;27;20028;-72
2024/01/21 03:06:42;;;;;;;11.50;6.78;;;;;;;-0.89;100.00;102055.72;5084227;27;20039;-73
2024/01/21 03:09:07;;;;;;;15.82;7.03;;;;;;;-0.90;100.00;102047.00;5094108;27;20073;-73
2024/01/21 03:11:34;;;;;;;11.77;6.60;;;;;;;-0.74;100.00;102047.91;5090105;27;20480;-72
2024/01/21 03:14:00;;;;;;;14.18;7.13;;;;;;;-0.70;100.00;102036.56;5087275;27;20031;-73
2024/01/21 03:16:25;;;;;;;12.30;6.50;;;;;;;-0.66;100.00;102040.06;5092924;27;20036;-73
2024/01/21 03:18:51;;;;;;;13.27;6.85;;;;;;;-0.56;100.00;102034.81;5065901;27;21109;-74
2024/01/21 03:21:16;;;;;;;16.45;7.20;;;;;;;-0.56;100.00;102032.22;5092574;27;20036;-73
2024/01/21 03:23:42;;;;;;;14.82;7.25;;;;;;;-0.45;100.00;102036.59;5087213;27;20028;-72
2024/01/21 03:26:07;;;;;;;14.88;7.35;;;;;;;-0.44;100.00;102031.38;5097241;27;20497;-72
2024/01/21 03:28:33;;;;;;;15.13;7.03;;;;;;;-0.45;100.00;102029.63;5079058;27;20605;-72
2024/01/21 03:30:58;;;;;;;16.25;8.20;;;;;;;-0.38;100.00;102007.78;5096516;27;20032;-73
2024/01/21 03:33:25;;;;;;;13.73;7.22;;;;;;;-0.35;100.00;102001.66;5093309;27;20032;-72
2024/01/21 03:35:51;;;;;;;15.63;7.38;;;;;;;-0.37;100.00;101996.44;5106228;27;20054;-73
2024/01/21 03:38:17;;;;;;;14.57;6.88;;;;;;;-0.30;100.00;101997.31;5106201;27;20043;-72
2024/01/21 03:40:42;;;;;;;14.38;7.30;;;;;;;-0.32;100.00;101992.06;5101711;27;20036;-73
2024/01/21 03:43:07;;;;;;;14.52;7.28;;;;;;;-0.30;100.00;101998.19;5089098;27;20076;-73
2024/01/21 03:45:33;;;;;;;13.23;7.15;;;;;;;-0.28;100.00;101985.97;5085092;27;20077;-73
2024/01/21 03:47:58;;;;;;;16.38;8.20;;;;;;;-0.29;100.00;101978.97;5098510;27;20766;-72
2024/01/21 03:50:24;;;;;;;14.70;7.35;;;;;;;-0.27;100.00;101973.72;5099988;27;20036;-73
2024/01/21 03:52:49;;;;;;;17.15;7.50;;;;;;;-0.28;100.00;101966.75;5095617;27;20028;-73
2024/01/21 03:55:16;;;;;;;13.88;7.38;;;;;;;-0.33;100.00;101963.25;5091858;27;20036;-74
2024/01/21 03:57:42;;;;;;;14.73;7.10;;;;;;;-0.38;100.00;101955.38;5094004;27;20906;-72
2024/01/21 04:00:09;;;;;;;14.80;7.25;;;;;;;-0.31;100.00;101966.72;5076126;28;20028;-73
2024/01/21 04:02:38;;;;;;;15.05;7.70;;;;;;;-0.34;100.00;101966.75;5091769;27;20140;-73
2024/01/21 04:05:05;;;;;;;14.15;7.65;;;;;;;-0.34;100.00;101967.63;5092031;27;20028;-72
2024/01/21 04:07:30;;;;;;;15.88;7.75;;;;;;;-0.43;100.00;101957.13;5088356;27;20040;-73
2024/01/21 04:09:56;;;;;;;13.27;7.13;;;;;;;-0.47;100.00;101954.50;5093405;27;20024;-73
2024/01/21 04:12:22;;;;;;;14.68;7.70;;;;;;;-0.50;100.00;101962.34;5095746;27;20031;-73
2024/01/21 04:14:47;;;;;;;19.58;8.57;;;;;;;-0.49;100.00;101965.00;5089012;27;20027;-72
2024/01/21 04:17:13;;;;;;;14.05;8.10;;;;;;;-0.54;100.00;101965.00;5094725;27;20054;-73
2024/01/21 04:19:38;;;;;;;15.98;8.15;;;;;;;-0.57;100.00;101961.50;5080205;27;20040;-72
2024/01/21 04:22:04;;;;;;;17.65;9.07;;;;;;;-0.53;100.00;101948.41;5084235;27;20062;-72
2024/01/21 04:24:29;;;;;;;17.48;9.18;;;;;;;-0.58;100.00;101951.91;5088855;27;20036;-73
2024/01/21 04:26:55;;;;;;;20.83;9.60;;;;;;;-0.66;100.00;101957.13;5078254;27;20036;-72
2024/01/21 04:29:20;;;;;;;20.92;8.95;;;;;;;-0.57;100.00;101946.66;5090073;27;20033;-72
2024/01/21 04:31:46;;;;;;;19.40;9.88;;;;;;;-0.64;100.00;101931.81;5094247;27;20473;-72
2024/01/21 04:34:11;;;;;;;20.17;8.68;;;;;;;-0.59;100.00;101931.81;5088902;27;20032;-73
2024/01/21 04:36:37;;;;;;;14.23;8.05;;;;;;;-0.63;100.00;101928.31;5098581;27;20040;-72
2024/01/21 04:39:03;;;;;;;22.13;9.70;;;;;;;-0.72;100.00;101924.81;5064877;28;20117;-72
2024/01/21 04:41:28;;;;;;;18.08;8.77;;;;;;;-0.68;100.00;101935.31;5091343;27;20071;-72
2024/01/21 04:43:54;;;;;;;18.33;9.05;;;;;;;-0.68;100.00;101918.72;5086065;27;20024;-72
2024/01/21 04:46:19;;;;;;;18.83;9.10;;;;;;;-0.67;100.00;101920.47;5096141;27;20059;-72
2024/01/21 04:48:45;;;;;;;17.75;9.10;;;;;;;-0.75;100.00;101923.09;5088412;27;20036;-72
2024/01/21 04:51:11;;;;;;;19.77;9.80;;;;;;;-0.73;100.00;101913.47;5073555;28;20032;-72
2024/01/21 04:53:39;;;;;;;17.63;10.18;;;;;;;-0.73;100.00;101899.50;5080244;27;20067;-72
2024/01/21 04:56:05;;;;;;;20.23;8.38;;;;;;;-0.68;100.00;101901.25;5081596;27;20184;-72
2024/01/21 04:58:34;;;;;;;18.73;10.20;;;;;;;-0.67;100.00;101903.00;5061684;27;20568;-72
2024/01/21 05:00:59;;;;;;;17.55;8.73;;;;;;;-0.65;100.00;101905.63;5095239;27;20575;-72
2024/01/21 05:03:25;;;;;;;21.17;9.65;;;;;;;-0.56;100.00;101903.84;5076171;27;20036;-74
2024/01/21 05:05:50;;;;;;;18.50;8.57;;;;;;;-0.55;100.00;101899.53;5090788;27;20813;-73
2024/01/21 05:08:16;;;;;;;15.95;8.75;;;;;;;-0.52;100.00;101887.28;5077131;28;20032;-73
2024/01/21 05:10:41;;;;;;;15.73;8.43;;;;;;;-0.49;100.00;101873.31;5093600;27;20036;-73
2024/01/21 05:13:07;;;;;;;17.83;8.73;;;;;;;-0.48;100.00;101859.34;5092738;27;20031;-74
2024/01/21 05:15:32;;;;;;;19.60;8.68;;;;;;;-0.45;100.00;101853.19;5088006;27;20061;-74
2024/01/21 05:17:58;;;;;;;15.15;8.93;;;;;;;-0.38;100.00;101845.34;5080691;27;20552;-74
2024/01/21 05:20:23;;;;;;;18.13;9.07;;;;;;;-0.34;100.00;101847.09;5099280;27;20047;-73
2024/01/21 05:22:50;;;;;;;15.40;9.02;;;;;;;-0.20;100.00;101848.78;5093572;27;20030;-73
2024/01/21 05:25:19;;;;;;;17.70;9.18;;;;;;;-0.13;100.00;101845.28;5076506;28;20036;-74
2024/01/21 05:27:44;;;;;;;16.35;8.23;;;;;;;-0.07;100.00;101843.50;5091686;27;20023;-73
2024/01/21 05:30:12;;;;;;;18.48;8.45;;;;;;;-0.05;100.00;101848.72;5072864;27;20036;-73
2024/01/21 05:32:38;;;;;;;16.10;9.20;;;;;;;0.09;100.00;101832.94;5093954;27;20024;-74
2024/01/21 05:35:04;;;;;;;17.08;8.65;;;;;;;0.09;100.00;101848.69;5092282;27;20054;-73
2024/01/21 05:37:30;;;;;;;16.50;9.02;;;;;;;0.08;100.00;101834.72;5084441;27;20044;-73
2024/01/21 05:39:55;;;;;;;12.95;7.47;;;;;;;0.04;100.00;101832.97;5095668;27;20040;-74
2024/01/21 05:42:21;;;;;;;15.25;8.02;;;;;;;0.01;100.00;101822.50;5095500;27;20040;-74
2024/01/21 05:44:46;;;;;;;15.30;8.00;;;;;;;0.13;100.00;101817.19;5092439;27;20032;-73
2024/01/21 05:47:11;;;;;;;16.17;7.93;;;;;;;0.13;100.00;101822.44;5102994;27;20042;-73
2024/01/21 05:49:37;;;;;;;14.25;7.20;;;;;;;0.20;100.00;101823.28;5100039;27;20051;-73
2024/01/21 05:52:03;;;;;;;15.10;8.73;;;;;;;0.14;100.00;101811.06;5096247;27;20831;-73
2024/01/21 05:54:28;;;;;;;17.92;9.75;;;;;;;0.16;100.00;101811.09;5074648;28;20035;-73
2024/01/21 05:56:54;;;;;;;15.98;7.78;;;;;;;0.15;100.00;101791.88;5087926;27;20044;-74
2024/01/21 05:59:20;;;;;;;19.38;8.50;;;;;;;0.06;100.00;101786.66;5097517;27;20040;-73
2024/01/21 06:01:50;;;;;;;16.30;7.93;;;;;;;0.06;100.00;101768.31;5074990;27;20036;-73
2024/01/21 06:04:16;;;;;;;15.57;8.05;;;;;;;0.09;100.00;101773.50;5093943;27;20040;-73
2024/01/21 06:06:42;;;;;;;17.13;9.00;;;;;;;-0.02;100.00;101772.72;5093623;27;20765;-73
2024/01/21 06:09:08;;;;;;;16.58;8.43;;;;;;;0.11;100.00;101771.78;5093985;27;20035;-73
2024/01/21 06:11:33;;;;;;;25.90;8.95;;;;;;;0.04;100.00;101791.03;5075349;27;20040;-73
2024/01/21 06:13:58;;;;;;;13.50;8.13;;;;;;;0.15;100.00;101819.81;5081902;27;20037;-73
2024/01/21 06:16:24;;;;;;;16.95;8.10;;;;;;;0.10;100.00;101827.72;5072125;27;20032;-73
2024/01/21 06:18:49;;;;;;;16.85;8.57;;;;;;;0.14;100.00;101797.97;5096679;27;20050;-73
2024/01/21 06:21:16;;;;;;;14.90;8.32;;;;;;;0.15;100.00;101810.22;5079357;27;20905;-73
2024/01/21 06:23:42;;;;;;;13.95;7.93;;;;;;;0.17;100.00;101813.69;5092763;27;20142;-73
2024/01/21 06:26:19;;;;;;;17.20;8.38;;;;;;;-0.01;100.00;101813.75;5098346;27;20079;-73
2024/01/21 06:28:45;;;;;;;15.52;8.48;;;;;;;0.08;100.00;101812.88;5095326;27;20035;-73
2024/01/21 06:31:11;;;;;;;17.42;7.43;;;;;;;0.19;100.00;101797.94;5093909;27;20201;-73
2024/01/21 06:33:38;;;;;;;15.32;7.28;;;;;;;0.16;100.00;101809.34;5071129;27;20031;-73
2024/01/21 06:36:04;;;;;;;16.15;7.28;;;;;;;0.15;100.00;101815.47;5091817;27;20031;-74
2024/01/21 06:38:29;;;;;;;16.05;7.50;;;;;;;0.20;100.00;101815.41;5098870;27;20071;-73
2024/01/21 06:40:54;;;;;;;13.70;7.05;;;;;;;0.32;100.00;101811.88;5098179;27;20028;-74
2024/01/21 06:43:20;;;;;;;14.88;7.38;;;;;;;0.27;100.00;101803.16;5075680;27;20039;-73
2024/01/21 06:45:45;;;;;;;13.10;7.13;;;;;;;0.37;100.00;101808.34;5067054;27;20130;-73
2024/01/21 06:48:11;;;;;;;13.38;6.95;;;;;;;0.43;100.00;101816.16;5097682;27;20595;-73
2024/01/21 06:50:37;;;;;;;10.98;6.53;;;;;;;0.32;100.00;101817.13;5100361;27;20764;-73
2024/01/21 06:53:03;;;;;;;12.10;6.10;;;;;;;0.37;100.00;101821.47;5088667;27;20040;-73
2024/01/21 06:55:28;;;;;;;15.32;6.60;;;;;;;0.46;100.00;101837.16;5067784;27;20139;-73
2024/01/21 06:57:54;;;;;;;12.73;6.68;;;;;;;0.52;100.00;101833.63;5088019;27;20037;-73
2024/01/21 07:00:19;;;;;;;14.48;7.40;;;;;;;0.55;100.00;101846.69;5099999;27;20153;-73
2024/01/21 07:02:45;;;;;;;12.45;7.38;;;;;;;0.44;100.00;101838.91;5071107;28;20036;-73
2024/01/21 07:05:10;;;;;;;13.55;6.60;;;;;;;0.49;100.00;101844.13;5090297;27;20066;-73
2024/01/21 07:07:36;;;;;;;13.52;6.90;;;;;;;0.57;100.00;101842.34;5090048;27;20837;-73
2024/01/21 07:10:02;;;;;;;13.77;6.63;;;;;;;0.56;100.00;101851.09;5091327;27;20169;-73
2024/01/21 07:12:27;;;;;;;15.13;6.68;;;;;;;0.58;100.00;101845.81;5095595;27;20034;-73
2024/01/21 07:14:53;;;;;;;15.52;6.97;;;;;;;0.54;100.00;101847.59;5078297;27;20039;-74
2024/01/21 07:17:18;;;;;;;11.98;6.85;;;;;;;0.65;100.00;101835.28;5067292;27;20033;-73
2024/01/21 07:19:44;;;;;;;15.60;6.72;;;;;;;0.69;100.00;101816.00;5086436;27;20039;-73
2024/01/21 07:22:10;;;;;;;10.77;6.65;;;;;;;0.69;100.00;101800.25;5092535;27;20959;-73
2024/01/21 07:24:35;;;;;;;15.55;7.50;;;;;;;0.70;100.00;101793.25;5081068;27;20054;-73
2024/01/21 07:27:01;;;;;;;13.02;6.57;;;;;;;0.69;100.00;101781.00;5099190;27;20617;-74
2024/01/21 07:29:27;;;;;;;13.88;7.38;;;;;;;0.77;100.00;101764.31;5088516;27;20028;-74
2024/01/21 07:31:52;;;;;;;14.18;7.35;;;;;;;0.74;100.00;101756.47;5093587;27;20408;-73
2024/01/21 07:34:19;;;;;;;14.23;7.80;;;;;;;0.77;100.00;101759.06;5090300;27;20028;-73
2024/01/21 07:36:45;;;;;;;13.35;6.88;;;;;;;0.77;100.00;101787.09;5068423;28;21138;-74
2024/01/21 07:39:11;;;;;;;13.93;7.90;;;;;;;0.70;100.00;101781.03;5070489;28;20044;-74
2024/01/21 07:41:37;;;;;;;18.70;8.45;;;;;;;0.80;100.00;101765.16;5073293;27;20086;-74
2024/01/21 07:44:02;;;;;;;14.98;8.20;;;;;;;0.86;100.00;101762.53;5093033;27;20928;-73
2024/01/21 07:46:28;;;;;;;14.45;7.45;;;;;;;0.86;100.00;101742.38;5075053;27;20090;-73
2024/01/21 07:48:53;;;;;;;13.77;7.55;;;;;;;0.98;100.00;101755.38;5092634;27;20036;-74
2024/01/21 07:51:19;;;;;;;14.52;7.63;;;;;;;1.05;100.00;101766.69;5093625;27;20136;-74
2024/01/21 07:53:45;;;;;;;15.10;8.27;;;;;;;1.09;100.00;101780.69;5092627;27;20055;-73
2024/01/21 07:56:13;;;;;;;14.55;7.38;;;;;;;1.15;100.00;101770.97;5074767;27;20077;-73
2024/01/21 07:58:38;;;;;;;13.95;8.05;;;;;;;1.17;100.00;101771.84;5086435;27;20036;-73
2024/01/21 08:01:10;;;;;;;16.85;8.60;;;;;;;1.21;98.91;101791.09;5075900;27;20059;-73
2024/01/21 08:03:35;;;;;;;13.35;7.35;;;;;;;1.28;97.28;101798.88;5086823;27;20571;-71
2024/01/21 08:06:01;;;;;;;13.13;7.75;;;;;;;1.29;97.71;101812.88;5073901;27;20122;-73
2024/01/21 08:08:27;;;;;;;16.10;8.57;;;;;;;1.34;97.40;101812.84;5075335;27;20925;-73
2024/01/21 08:10:52;;;;;;;22.35;7.85;;;;;;;1.48;96.14;101821.47;5088227;27;20040;-73
2024/01/21 08:13:17;;;;;;;15.32;8.38;;;;;;;1.49;97.24;101820.56;5091456;27;20036;-73
2024/01/21 08:15:43;;;;;;;15.25;7.88;;;;;;;1.56;96.15;101824.91;5071134;27;20122;-73
2024/01/21 08:18:08;;;;;;;15.63;8.02;;;;;;;1.57;95.40;101839.78;5081793;27;20459;-73
2024/01/21 08:20:34;;;;;;;14.40;8.07;;;;;;;1.71;94.76;101845.78;5082378;27;20036;-74
2024/01/21 08:23:01;;;;;;;14.75;8.07;;;;;;;1.78;95.42;101846.56;5090294;27;20035;-74
2024/01/21 08:25:27;;;;;;;13.13;7.38;;;;;;;1.79;94.54;101843.03;5072355;28;20028;-74
2024/01/21 08:27:53;;;;;;;16.50;7.85;;;;;;;1.70;93.69;101851.88;5089428;27;20040;-75
2024/01/21 08:30:19;;;;;;;13.20;7.35;;;;;;;1.84;93.96;101849.13;5089059;27;20083;-73
2024/01/21 08:32:44;;;;;;;14.75;7.70;;;;;;;1.82;93.97;101840.38;5072182;27;20084;-74
2024/01/21 08:35:10;;;;;;;19.75;7.65;;;;;;;1.77;93.77;101848.31;5093732;27;20141;-73
2024/01/21 08:37:35;;;;;;;11.88;7.25;;;;;;;1.89;94.36;101842.03;5092140;27;20032;-73
2024/01/21 08:40:01;;;;;;;14.85;8.32;;;;;;;1.85;93.53;101842.09;5090692;27;20171;-73
2024/01/21 08:42:27;;;;;;;14.23;8.48;;;;;;;1.97;94.25;101860.38;5075468;27;20048;-73
2024/01/21 08:44:55;;;;;;;14.82;8.00;;;;;;;2.02;95.57;101856.81;5087101;27;20031;-74
2024/01/21 08:47:21;;;;;;;15.05;8.10;;;;;;;2.00;93.68;101852.44;5090452;27;20046;-74
2024/01/21 08:49:46;;;;;;;16.38;8.80;;;;;;;2.11;93.10;101865.47;5078495;27;20039;-73
2024/01/21 08:52:12;;;;;;;13.35;7.82;;;;;;;2.17;93.62;101847.00;5087921;27;20043;-74
2024/01/21 08:54:38;;;;;;;17.90;7.65;;;;;;;2.17;93.83;101841.72;5096458;27;20036;-74
2024/01/21 08:57:04;;;;;;;10.85;7.93;;;;;;;2.10;93.74;101840.03;5073341;27;20033;-74
2024/01/21 08:59:32;;;;;;;16.55;8.02;;;;;;;2.10;93.25;101854.06;5088715;27;20520;-74
2024/01/21 09:01:58;;;;;;;12.30;7.15;;;;;;;2.07;93.61;101846.22;5091866;27;20031;-74
2024/01/21 09:04:23;;;;;;;12.15;7.80;;;;;;;2.07;94.00;101833.94;5079411;27;20033;-74
2024/01/21 09:06:49;;;;;;;14.73;7.30;;;;;;;2.17;93.05;101831.22;5079432;27;20066;-74
2024/01/21 09:09:14;;;;;;;14.52;7.80;;;;;;;2.27;92.97;101854.75;5082714;27;20032;-74
2024/01/21 09:11:40;;;;;;;15.93;7.88;;;;;;;2.33;93.76;101859.94;5082103;27;20101;-74
2024/01/21 09:14:06;;;;;;;15.85;7.43;;;;;;;2.34;93.88;101868.69;5063984;27;20957;-73
2024/01/21 09:16:32;;;;;;;14.07;7.22;;;;;;;2.42;94.33;101868.59;5089456;27;20135;-74
2024/01/21 09:18:58;;;;;;;16.27;8.38;;;;;;;2.35;94.40;101852.00;5087289;27;20536;-74
2024/01/21 09:21:24;;;;;;;13.35;7.35;;;;;;;2.38;95.04;101843.22;5098622;27;20039;-74
2024/01/21 09:23:49;;;;;;;13.93;8.00;;;;;;;2.53;94.79;101845.63;5092855;27;20067;-74
2024/01/21 09:26:15;;;;;;;12.32;7.25;;;;;;;2.66;93.17;101857.75;5075459;27;20110;-74
2024/01/21 09:28:42;;;;;;;14.98;7.47;;;;;;;2.76;93.71;101863.72;5076089;27;20063;-73
2024/01/21 09:31:09;;;;;;;12.68;7.53;;;;;;;2.65;94.32;101870.91;5092416;27;20032;-74
2024/01/21 09:33:35;;;;;;;15.13;8.10;;;;;;;2.60;95.01;101873.59;5072199;27;20090;-73
2024/01/21 09:36:02;;;;;;;13.82;7.43;;;;;;;2.57;94.54;101871.03;5094062;27;20564;-73
2024/01/21 09:38:27;;;;;;;17.20;8.30;;;;;;;2.58;95.34;101863.09;5093522;27;20059;-73
2024/01/21 09:41:13;;;;;;;14.10;7.55;;;;;;;2.64;96.15;101863.91;5087451;27;20028;-73
2024/01/21 09:43:42;;;;;;;14.05;8.18;;;;;;;2.51;97.65;101869.34;5060322;27;20914;-74
2024/01/21 09:46:11;;;;;;;13.02;7.75;;;;;;;2.65;98.15;101868.28;5076142;27;20026;-73
2024/01/21 09:48:37;;;;;;;17.45;7.63;;;;;;;2.68;97.70;101870.88;5091512;27;20064;-73
2024/01/21 09:51:08;;;;;;;12.60;7.82;;;;;;;2.82;98.03;101869.78;5075353;27;20062;-74
2024/01/21 09:53:35;;;;;;;15.35;7.28;;;;;;;2.72;98.25;101891.00;5066002;27;20067;-74
2024/01/21 09:56:07;;;;;;;13.45;7.57;;;;;;;2.77;99.58;101895.31;5074244;27;20042;-74
2024/01/21 09:58:48;;;;;;;18.98;8.20;;;;;;;2.58;100.00;101901.72;5057674;27;21061;-73
2024/01/21 10:01:15;;;;;;;14.15;7.10;;;;;;;2.66;100.00;101897.25;5099935;27;20036;-74
2024/01/21 10:03:41;;;;;;;13.38;7.70;;;;;;;2.67;100.00;101892.84;5088517;27;20024;-74
2024/01/21 10:06:07;;;;;;;14.32;7.72;;;;;;;2.64;100.00;101895.50;5087214;27;20039;-74
2024/01/21 10:08:32;;;;;;;12.68;7.72;;;;;;;2.58;100.00;101894.69;5074536;27;20381;-73
2024/01/21 10:11:02;;;;;;;18.27;8.50;;;;;;;2.60;100.00;101889.41;5094226;27;20085;-74
2024/01/21 10:13:30;;;;;;;12.75;7.75;;;;;;;2.83;100.00;101889.09;5090881;27;20577;-74
2024/01/21 10:15:57;;;;;;;15.10;7.70;;;;;;;2.65;100.00;101899.88;5087225;27;21047;-73
2024/01/21 10:18:26;;;;;;;11.68;7.65;;;;;;;2.77;100.00;101881.28;5091319;27;20132;-74
2024/01/21 10:20:52;;;;;;;12.93;7.75;;;;;;;2.67;100.00;101883.19;5086370;27;20315;-74
2024/01/21 10:23:17;;;;;;;18.08;7.63;;;;;;;2.63;100.00;101889.38;5090406;27;20040;-74
2024/01/21 10:25:44;;;;;;;15.20;7.97;;;;;;;2.71;100.00;101878.72;5096941;27;20040;-74
2024/01/21 10:28:12;;;;;;;12.52;7.47;;;;;;;2.71;100.00;101882.25;5093415;27;20047;-74
2024/01/21 10:30:38;;;;;;;14.07;8.15;;;;;;;2.75;100.00;101880.41;5090543;27;20024;-74
2024/01/21 10:33:05;;;;;;;16.08;7.75;;;;;;;2.88;100.00;101871.44;5092705;27;20050;-74
2024/01/21 10:35:31;;;;;;;15.85;8.50;;;;;;;2.82;100.00;101868.91;5075898;27;20028;-74
2024/01/21 10:37:58;;;;;;;15.82;8.02;;;;;;;2.83;100.00;101858.34;5094743;27;20115;-74
2024/01/21 10:40:24;;;;;;;15.85;8.02;;;;;;;2.83;100.00;101850.44;5076551;27;20971;-74
2024/01/21 10:42:55;;;;;;;16.20;7.68;;;;;;;3.07;100.00;101850.97;5074825;27;20052;-74
2024/01/21 10:45:24;;;;;;;14.55;8.38;;;;;;;3.04;100.00;101843.97;5084121;27;20020;-74
2024/01/21 10:47:51;;;;;;;12.68;7.57;;;;;;;3.10;100.00;101849.13;5091029;27;20086;-74
2024/01/21 10:50:19;;;;;;;18.02;8.73;;;;;;;3.15;100.00;101869.28;5089498;27;20035;-75
2024/01/21 10:52:45;;;;;;;12.32;7.75;;;;;;;3.02;100.00;101864.22;5090309;27;20031;-74
2024/01/21 10:55:11;;;;;;;12.45;7.90;;;;;;;2.95;100.00;101862.56;5092885;27;20074;-74
2024/01/21 10:57:37;;;;;;;15.65;8.07;;;;;;;3.11;100.00;101861.44;5096873;27;20150;-74
2024/01/21 11:00:04;;;;;;;16.77;8.00;;;;;;;3.05;100.00;101853.59;5092851;27;20050;-75
2024/01/21 11:02:31;;;;;;;15.32;8.05;;;;;;;2.91;100.00;101855.59;5082606;27;20035;-75
2024/01/21 11:04:57;;;;;;;12.73;7.38;;;;;;;2.99;100.00;101855.47;5068626;27;20115;-75
2024/01/21 11:07:25;;;;;;;14.35;8.43;;;;;;;2.89;100.00;101853.88;5094513;27;20027;-75
2024/01/21 11:09:54;;;;;;;14.18;8.25;;;;;;;3.08;100.00;101844.81;5093919;27;20109;-75